createdAt,value
2023-04-11T00:00:30.058Z,99.76
2023-04-11T00:03:02.034Z,99.96
2023-04-11T00:05:31.254Z,100.00
2023-04-11T00:07:57.691Z,100.00
2023-04-11T00:10:24.508Z,100.00
2023-04-11T00:12:51.037Z,100.00
2023-04-11T00:15:17.572Z,100.00
2023-04-11T00:17:45.505Z,100.00
2023-04-11T00:20:13.056Z,100.00
2023-04-11T00:22:39.675Z,100.00
2023-04-11T00:25:07.065Z,100.00
2023-04-11T00:27:33.589Z,100.00
2023-04-11T00:30:00.779Z,100.00
2023-04-11T00:32:27.857Z,100.00
2023-04-11T00:34:55.308Z,100.00
2023-04-11T00:37:22.158Z,100.00
2023-04-11T00:39:55.692Z,100.00
2023-04-11T00:42:22.228Z,100.00
2023-04-11T00:44:48.870Z,100.00
2023-04-11T00:47:15.610Z,100.00
2023-04-11T00:49:42.327Z,100.00
2023-04-11T00:52:09.365Z,100.00
2023-04-11T00:54:35.964Z,100.00
2023-04-11T00:57:04.298Z,100.00
2023-04-11T00:59:32.298Z,100.00
2023-04-11T01:01:59.849Z,100.00
2023-04-11T01:04:26.374Z,100.00
2023-04-11T01:07:03.894Z,100.00
2023-04-11T01:09:33.380Z,100.00
2023-04-11T01:12:01.489Z,100.00
2023-04-11T01:14:28.644Z,100.00
2023-04-11T01:16:56.685Z,100.00
2023-04-11T01:19:26.246Z,100.00
2023-04-11T01:21:53.900Z,100.00
2023-04-11T01:24:20.542Z,100.00
2023-04-11T01:26:47.041Z,100.00
2023-04-11T01:29:13.500Z,100.00
2023-04-11T01:31:39.875Z,100.00
2023-04-11T01:34:06.299Z,100.00
2023-04-11T01:36:33.004Z,100.00
2023-04-11T01:38:59.810Z,100.00
2023-04-11T01:41:27.528Z,100.00
2023-04-11T01:43:54.184Z,100.00
2023-04-11T01:46:21.816Z,99.91
2023-04-11T01:48:50.544Z,98.98
2023-04-11T01:51:17.172Z,97.75
2023-04-11T01:53:45.947Z,97.12
2023-04-11T01:56:13.144Z,96.79
2023-04-11T01:58:39.971Z,95.99
2023-04-11T02:01:06.836Z,96.28
2023-04-11T02:03:33.445Z,96.34
2023-04-11T02:05:59.889Z,96.23
2023-04-11T02:08:26.265Z,96.42
2023-04-11T02:10:52.643Z,96.92
2023-04-11T02:13:19.148Z,97.44
2023-04-11T02:15:45.606Z,98.02
2023-04-11T02:18:12.092Z,98.35
2023-04-11T02:20:40.474Z,99.04
2023-04-11T02:23:07.455Z,99.70
2023-04-11T02:25:34.263Z,100.00
2023-04-11T02:28:00.968Z,100.00
2023-04-11T02:30:27.377Z,100.00
2023-04-11T02:32:54.019Z,100.00
2023-04-11T02:35:20.462Z,99.40
2023-04-11T02:37:46.860Z,98.41
2023-04-11T02:40:13.243Z,97.60
2023-04-11T02:42:43.061Z,96.44
2023-04-11T02:45:10.232Z,96.28
2023-04-11T02:47:36.609Z,96.14
2023-04-11T02:50:03.185Z,95.59
2023-04-11T02:52:29.620Z,94.29
2023-04-11T02:54:56.098Z,93.71
2023-04-11T02:57:22.447Z,93.65
2023-04-11T02:59:48.850Z,93.37
2023-04-11T03:02:15.488Z,92.06
2023-04-11T03:04:41.946Z,91.79
2023-04-11T03:07:08.289Z,91.77
2023-04-11T03:09:34.708Z,91.69
2023-04-11T03:12:01.331Z,91.83
2023-04-11T03:14:27.819Z,92.15
2023-04-11T03:16:54.225Z,92.76
2023-04-11T03:19:21.097Z,92.96
2023-04-11T03:21:47.508Z,93.04
2023-04-11T03:24:13.896Z,92.68
2023-04-11T03:26:40.478Z,92.42
2023-04-11T03:29:06.982Z,92.66
2023-04-11T03:31:33.545Z,93.39
2023-04-11T03:33:59.958Z,93.88
2023-04-11T03:36:29.862Z,94.38
2023-04-11T03:38:56.421Z,94.32
2023-04-11T03:41:23.044Z,94.20
2023-04-11T03:43:49.470Z,93.69
2023-04-11T03:46:15.922Z,93.63
2023-04-11T03:48:42.352Z,93.25
2023-04-11T03:51:08.815Z,92.94
2023-04-11T03:53:35.227Z,91.96
2023-04-11T03:56:01.906Z,91.82
2023-04-11T03:58:28.292Z,91.81
2023-04-11T04:00:54.742Z,92.61
2023-04-11T04:03:21.562Z,92.88
2023-04-11T04:05:48.086Z,92.99
2023-04-11T04:08:14.713Z,92.53
2023-04-11T04:10:41.142Z,92.85
2023-04-11T04:13:07.520Z,93.21
2023-04-11T04:15:34.186Z,92.89
2023-04-11T04:18:00.674Z,92.99
2023-04-11T04:20:27.204Z,93.19
2023-04-11T04:22:53.842Z,93.41
2023-04-11T04:25:20.594Z,93.77
2023-04-11T04:27:47.660Z,93.71
2023-04-11T04:30:19.042Z,93.49
2023-04-11T04:32:45.989Z,93.80
2023-04-11T04:35:14.174Z,93.87
2023-04-11T04:37:45.589Z,94.23
2023-04-11T04:40:13.977Z,94.17
2023-04-11T04:42:44.018Z,93.75
2023-04-11T04:45:11.303Z,93.20
2023-04-11T04:47:38.581Z,92.99
2023-04-11T04:50:05.994Z,93.18
2023-04-11T04:52:32.456Z,93.05
2023-04-11T04:54:59.120Z,92.49
2023-04-11T04:57:27.215Z,92.59
2023-04-11T04:59:54.857Z,92.50
2023-04-11T05:02:21.802Z,92.65
2023-04-11T05:04:51.198Z,92.30
2023-04-11T05:07:18.261Z,92.14
2023-04-11T05:09:44.929Z,91.88
2023-04-11T05:12:11.577Z,91.67
2023-04-11T05:14:38.061Z,90.65
2023-04-11T05:17:04.918Z,89.67
2023-04-11T05:19:32.323Z,90.21
2023-04-11T05:21:58.849Z,87.26
2023-04-11T05:24:25.608Z,81.97
2023-04-11T05:26:52.061Z,79.04
2023-04-11T05:29:18.497Z,75.24
2023-04-11T05:31:44.873Z,73.27
2023-04-11T05:34:11.280Z,73.70
2023-04-11T05:36:37.714Z,73.06
2023-04-11T05:39:04.550Z,70.66
2023-04-11T05:41:31.196Z,69.71
2023-04-11T05:43:57.742Z,74.09
2023-04-11T05:46:24.750Z,74.57
2023-04-11T05:48:51.270Z,73.24
2023-04-11T05:51:17.682Z,72.73
2023-04-11T05:53:44.823Z,70.57
2023-04-11T05:56:12.902Z,67.47
2023-04-11T05:58:43.035Z,64.51
2023-04-11T06:01:14.289Z,62.93
2023-04-11T06:03:40.856Z,61.43
2023-04-11T06:06:07.923Z,59.66
2023-04-11T06:08:34.447Z,58.29
2023-04-11T06:11:00.859Z,55.72
2023-04-11T06:13:27.345Z,55.94
2023-04-11T06:15:53.820Z,53.74
2023-04-11T06:18:20.265Z,53.95
2023-04-11T06:20:47.114Z,54.41
2023-04-11T06:23:13.501Z,51.62
2023-04-11T06:25:40.290Z,52.23
2023-04-11T06:28:06.688Z,51.83
2023-04-11T06:30:33.062Z,51.67
2023-04-11T06:32:59.475Z,50.44
2023-04-11T06:35:26.084Z,49.57
2023-04-11T06:37:53.655Z,51.48
2023-04-11T06:40:20.552Z,50.50
2023-04-11T06:42:47.578Z,49.76
2023-04-11T06:45:14.017Z,49.99
2023-04-11T06:47:40.646Z,50.02
2023-04-11T06:50:07.824Z,49.19
2023-04-11T06:52:34.251Z,50.80
2023-04-11T06:55:00.639Z,52.40
2023-04-11T06:57:27.073Z,55.10
2023-04-11T06:59:53.509Z,51.70
2023-04-11T07:02:20.004Z,53.74
2023-04-11T07:04:46.662Z,53.30
2023-04-11T07:07:13.214Z,53.23
2023-04-11T07:09:39.756Z,53.35
2023-04-11T07:12:06.317Z,54.22
2023-04-11T07:14:32.748Z,52.88
2023-04-11T07:16:59.231Z,55.58
2023-04-11T07:19:25.648Z,54.26
2023-04-11T07:21:52.347Z,54.40
2023-04-11T07:24:19.039Z,57.49
2023-04-11T07:26:46.550Z,56.16
2023-04-11T07:29:14.759Z,56.12
2023-04-11T07:31:41.678Z,56.58
2023-04-11T07:34:08.284Z,55.07
2023-04-11T07:36:34.939Z,54.94
2023-04-11T07:39:01.470Z,53.29
2023-04-11T07:41:27.903Z,53.02
2023-04-11T07:43:54.461Z,53.18
2023-04-11T07:46:21.098Z,54.14
2023-04-11T07:48:47.496Z,51.52
2023-04-11T07:51:13.914Z,49.08
2023-04-11T07:53:40.353Z,51.27
2023-04-11T07:56:07.143Z,55.61
2023-04-11T07:58:33.811Z,58.84
2023-04-11T08:01:02.758Z,58.00
2023-04-11T08:03:30.081Z,56.84
2023-04-11T08:05:56.688Z,57.52
2023-04-11T08:08:23.161Z,59.24
2023-04-11T08:10:52.113Z,60.50
2023-04-11T08:13:18.822Z,60.04
2023-04-11T08:15:45.198Z,60.01
2023-04-11T08:18:12.226Z,59.23
2023-04-11T08:20:40.634Z,59.68
2023-04-11T08:23:08.666Z,60.53
2023-04-11T08:25:36.468Z,60.16
2023-04-11T08:28:04.621Z,60.09
2023-04-11T08:30:31.141Z,59.15
2023-04-11T08:32:57.977Z,59.75
2023-04-11T08:35:24.498Z,58.90
2023-04-11T08:37:50.860Z,59.60
2023-04-11T08:40:17.541Z,60.39
2023-04-11T08:42:44.527Z,59.28
2023-04-11T08:45:11.407Z,61.68
2023-04-11T08:47:37.971Z,62.78
2023-04-11T08:50:07.953Z,59.92
2023-04-11T08:52:35.641Z,61.58
2023-04-11T08:55:02.123Z,58.85
2023-04-11T08:57:34.750Z,58.11
2023-04-11T09:00:19.029Z,57.45
2023-04-11T09:03:07.777Z,56.76
2023-04-11T09:05:38.180Z,57.05
2023-04-11T09:08:09.776Z,58.16
2023-04-11T09:10:37.799Z,60.60
2023-04-11T09:13:19.653Z,60.23
2023-04-11T09:15:46.112Z,59.96
2023-04-11T09:18:31.606Z,60.53
2023-04-11T09:21:05.659Z,60.39
2023-04-11T09:23:32.155Z,61.90
2023-04-11T09:25:58.604Z,62.20
2023-04-11T09:28:25.788Z,61.51
2023-04-11T09:30:54.423Z,61.27
2023-04-11T09:33:23.443Z,60.92
2023-04-11T09:35:52.440Z,61.59
2023-04-11T09:38:36.095Z,59.67
2023-04-11T09:41:04.364Z,58.87
2023-04-11T09:43:55.892Z,59.49
2023-04-11T09:46:22.709Z,56.08
2023-04-11T09:48:50.445Z,56.21
2023-04-11T09:51:34.490Z,57.25
2023-04-11T09:54:03.467Z,59.25
2023-04-11T09:56:31.137Z,59.28
2023-04-11T09:58:59.801Z,58.24
2023-04-11T10:01:26.237Z,57.43
2023-04-11T10:03:54.061Z,55.90
2023-04-11T10:07:17.060Z,58.41
2023-04-11T10:09:45.850Z,57.70
2023-04-11T10:12:12.341Z,54.82
2023-04-11T10:14:38.701Z,55.77
2023-04-11T10:17:19.783Z,54.72
2023-04-11T10:19:49.253Z,54.65
2023-04-11T10:22:41.556Z,55.98
2023-04-11T10:25:21.752Z,53.68
2023-04-11T10:27:50.057Z,50.64
2023-04-11T10:30:16.700Z,52.24
2023-04-11T10:33:13.006Z,53.75
2023-04-11T10:36:05.992Z,51.85
2023-04-11T10:38:47.041Z,51.25
2023-04-11T10:41:34.135Z,53.52
2023-04-11T10:44:24.685Z,53.77
2023-04-11T10:46:55.780Z,51.78
2023-04-11T10:49:37.140Z,50.30
2023-04-11T10:52:23.678Z,49.92
2023-04-11T10:54:53.566Z,48.04
2023-04-11T10:57:21.521Z,47.89
2023-04-11T10:59:50.883Z,51.89
2023-04-11T11:02:19.429Z,50.51
2023-04-11T11:04:46.723Z,50.39
2023-04-11T11:07:18.758Z,46.84
2023-04-11T11:09:49.597Z,49.09
2023-04-11T11:12:17.094Z,47.87
2023-04-11T11:14:45.724Z,46.95
2023-04-11T11:17:16.683Z,47.85
2023-04-11T11:19:44.990Z,48.86
2023-04-11T11:22:19.007Z,49.70
2023-04-11T11:24:45.607Z,46.92
2023-04-11T11:27:22.795Z,48.62
2023-04-11T11:29:49.896Z,49.21
2023-04-11T11:32:27.944Z,47.71
2023-04-11T11:34:55.252Z,48.06
2023-04-11T11:37:21.871Z,45.07
2023-04-11T11:39:49.198Z,48.20
2023-04-11T11:42:16.024Z,46.83
2023-04-11T11:44:42.738Z,45.23
2023-04-11T11:47:12.697Z,45.35
2023-04-11T11:49:51.082Z,45.83
2023-04-11T11:52:39.675Z,46.28
2023-04-11T11:55:11.285Z,46.67
2023-04-11T11:57:43.613Z,48.07
2023-04-11T12:00:10.896Z,48.93
2023-04-11T12:02:39.140Z,49.07
2023-04-11T12:05:07.764Z,44.97
2023-04-11T12:07:37.197Z,47.90
2023-04-11T12:10:10.726Z,46.21
2023-04-11T12:12:41.797Z,46.33
2023-04-11T12:15:12.867Z,47.96
2023-04-11T12:17:40.315Z,48.22
2023-04-11T12:20:08.309Z,47.35
2023-04-11T12:22:35.259Z,45.45
2023-04-11T12:25:09.768Z,46.56
2023-04-11T12:27:37.592Z,47.55
2023-04-11T12:30:04.524Z,47.70
2023-04-11T12:32:33.869Z,47.33
2023-04-11T12:35:01.548Z,47.71
2023-04-11T12:37:27.949Z,46.98
2023-04-11T12:39:54.865Z,48.14
2023-04-11T12:42:26.523Z,45.60
2023-04-11T12:44:53.764Z,46.00
2023-04-11T12:47:20.268Z,46.73
2023-04-11T12:49:46.733Z,45.53
2023-04-11T12:52:13.119Z,46.01
2023-04-11T12:54:39.750Z,44.51
2023-04-11T12:57:07.543Z,44.76
2023-04-11T12:59:33.988Z,45.24
2023-04-11T13:02:00.569Z,47.24
2023-04-11T13:04:27.407Z,46.25
2023-04-11T13:06:53.904Z,46.28
2023-04-11T13:09:20.884Z,46.03
2023-04-11T13:11:47.407Z,45.04
2023-04-11T13:14:13.790Z,46.11
2023-04-11T13:16:40.307Z,46.44
2023-04-11T13:19:06.776Z,46.67
2023-04-11T13:21:33.385Z,46.43
2023-04-11T13:23:59.867Z,43.74
2023-04-11T13:26:26.530Z,45.15
2023-04-11T13:28:52.968Z,42.92
2023-04-11T13:31:19.499Z,42.73
2023-04-11T13:33:47.887Z,42.91
2023-04-11T13:36:14.369Z,44.67
2023-04-11T13:38:41.057Z,43.87
2023-04-11T13:41:07.490Z,42.82
2023-04-11T13:43:33.923Z,41.97
2023-04-11T13:46:00.331Z,41.67
2023-04-11T13:48:26.735Z,42.17
2023-04-11T13:50:53.171Z,41.13
2023-04-11T13:53:19.654Z,41.41
2023-04-11T13:55:48.291Z,42.57
2023-04-11T13:58:14.724Z,42.38
2023-04-11T14:00:41.205Z,40.90
2023-04-11T14:03:07.750Z,41.34
2023-04-11T14:05:35.617Z,40.87
2023-04-11T14:08:03.150Z,42.78
2023-04-11T14:10:29.903Z,40.93
2023-04-11T14:12:56.319Z,39.75
2023-04-11T14:15:22.784Z,39.72
2023-04-11T14:17:49.405Z,39.98
2023-04-11T14:20:15.852Z,39.18
2023-04-11T14:22:43.755Z,39.64
2023-04-11T14:25:11.152Z,39.30
2023-04-11T14:27:39.398Z,40.93
2023-04-11T14:30:06.753Z,40.98
2023-04-11T14:32:33.154Z,39.93
2023-04-11T14:35:01.908Z,38.32
2023-04-11T14:37:28.616Z,38.61
2023-04-11T14:39:55.264Z,38.82
2023-04-11T14:42:21.775Z,39.56
2023-04-11T14:44:50.313Z,39.91
2023-04-11T14:47:17.072Z,39.51
2023-04-11T14:49:44.004Z,39.61
2023-04-11T14:52:10.599Z,41.61
2023-04-11T14:54:37.338Z,41.28
2023-04-11T14:57:03.884Z,42.97
2023-04-11T14:59:30.764Z,40.45
2023-04-11T15:01:57.698Z,39.08
2023-04-11T15:04:24.264Z,40.55
2023-04-11T15:06:51.250Z,40.93
2023-04-11T15:09:20.168Z,40.82
2023-04-11T15:11:46.971Z,41.05
2023-04-11T15:14:13.646Z,40.88
2023-04-11T15:16:40.440Z,42.77
2023-04-11T15:19:08.940Z,43.21
2023-04-11T15:21:35.663Z,41.55
2023-04-11T15:24:07.166Z,41.54
2023-04-11T15:26:34.198Z,41.03
2023-04-11T15:29:00.770Z,42.03
2023-04-11T15:31:27.389Z,41.78
2023-04-11T15:33:57.050Z,42.48
2023-04-11T15:36:24.112Z,42.58
2023-04-11T15:38:50.652Z,42.59
2023-04-11T15:41:17.242Z,40.76
2023-04-11T15:43:43.938Z,41.20
2023-04-11T15:46:10.385Z,42.16
2023-04-11T15:48:36.841Z,41.30
2023-04-11T15:51:10.781Z,42.22
2023-04-11T15:53:37.470Z,41.67
2023-04-11T15:56:06.052Z,42.34
2023-04-11T15:58:33.862Z,41.85
2023-04-11T16:01:01.693Z,43.26
2023-04-11T16:03:31.726Z,42.42
2023-04-11T16:05:58.942Z,42.15
2023-04-11T16:08:28.731Z,42.64
2023-04-11T16:10:55.454Z,42.81
2023-04-11T16:13:21.877Z,42.43
2023-04-11T16:15:48.250Z,40.18
2023-04-11T16:18:15.847Z,42.27
2023-04-11T16:20:42.258Z,42.32
2023-04-11T16:23:08.657Z,41.96
2023-04-11T16:25:35.101Z,40.80
2023-04-11T16:28:01.882Z,41.74
2023-04-11T16:30:28.380Z,42.67
2023-04-11T16:32:54.808Z,42.13
2023-04-11T16:35:21.287Z,42.92
2023-04-11T16:37:47.750Z,42.13
2023-04-11T16:40:14.395Z,42.01
2023-04-11T16:42:41.413Z,42.67
2023-04-11T16:45:09.726Z,42.40
2023-04-11T16:47:36.407Z,43.74
2023-04-11T16:50:03.821Z,44.49
2023-04-11T16:52:30.476Z,45.54
2023-04-11T16:54:56.903Z,45.39
2023-04-11T16:57:24.897Z,44.76
2023-04-11T16:59:51.597Z,45.30
2023-04-11T17:02:18.343Z,46.35
2023-04-11T17:04:45.793Z,48.25
2023-04-11T17:07:12.261Z,48.41
2023-04-11T17:09:38.724Z,47.93
2023-04-11T17:12:05.362Z,48.32
2023-04-11T17:14:31.885Z,49.40
2023-04-11T17:16:58.371Z,48.99
2023-04-11T17:19:25.664Z,51.11
2023-04-11T17:21:52.119Z,51.44
2023-04-11T17:24:18.509Z,51.50
2023-04-11T17:26:45.042Z,52.39
2023-04-11T17:29:11.472Z,52.77
2023-04-11T17:31:38.415Z,53.86
2023-04-11T17:34:04.861Z,53.68
2023-04-11T17:36:31.406Z,54.33
2023-04-11T17:38:57.931Z,55.29
2023-04-11T17:41:24.345Z,55.19
2023-04-11T17:43:50.793Z,55.48
2023-04-11T17:46:17.353Z,55.94
2023-04-11T17:48:43.896Z,56.21
2023-04-11T17:51:10.378Z,55.98
2023-04-11T17:53:36.975Z,56.03
2023-04-11T17:56:05.806Z,56.34
2023-04-11T17:58:32.801Z,57.07
2023-04-11T18:00:59.579Z,57.79
2023-04-11T18:03:26.459Z,58.03
2023-04-11T18:05:54.428Z,58.95
2023-04-11T18:08:26.026Z,59.31
2023-04-11T18:10:59.875Z,58.94
2023-04-11T18:13:27.342Z,59.35
2023-04-11T18:15:53.906Z,60.22
2023-04-11T18:18:20.397Z,60.09
2023-04-11T18:20:46.824Z,60.29
2023-04-11T18:23:13.259Z,60.75
2023-04-11T18:25:39.769Z,61.53
2023-04-11T18:28:06.357Z,61.16
2023-04-11T18:30:32.770Z,61.73
2023-04-11T18:32:59.185Z,61.64
2023-04-11T18:35:25.857Z,62.37
2023-04-11T18:37:53.336Z,62.60
2023-04-11T18:40:19.870Z,63.49
2023-04-11T18:42:51.302Z,63.29
2023-04-11T18:45:20.661Z,63.52
2023-04-11T18:47:47.461Z,63.42
2023-04-11T18:50:17.334Z,63.38
2023-04-11T18:52:45.077Z,63.44
2023-04-11T18:55:12.278Z,63.71
2023-04-11T18:57:38.989Z,63.85
2023-04-11T19:00:25.080Z,63.92
2023-04-11T19:02:52.239Z,64.12
2023-04-11T19:05:19.357Z,63.95
2023-04-11T19:07:46.536Z,63.56
2023-04-11T19:10:13.078Z,63.81
2023-04-11T19:12:41.065Z,63.93
2023-04-11T19:15:08.970Z,64.02
2023-04-11T19:17:38.331Z,64.39
2023-04-11T19:20:06.960Z,64.65
2023-04-11T19:22:34.572Z,64.19
2023-04-11T19:25:01.074Z,64.66
2023-04-11T19:27:27.563Z,65.17
2023-04-11T19:29:54.106Z,65.83
2023-04-11T19:32:20.923Z,66.39
2023-04-11T19:34:49.411Z,66.76
2023-04-11T19:37:16.598Z,67.03
2023-04-11T19:39:43.779Z,67.32
2023-04-11T19:42:10.601Z,67.57
2023-04-11T19:44:37.665Z,67.46
2023-04-11T19:47:04.232Z,67.23
2023-04-11T19:49:30.633Z,67.31
2023-04-11T19:51:57.050Z,67.81
2023-04-11T19:54:23.718Z,67.45
2023-04-11T19:56:52.721Z,67.84
2023-04-11T19:59:19.376Z,67.86
2023-04-11T20:01:46.387Z,67.91
2023-04-11T20:04:13.767Z,68.26
2023-04-11T20:06:43.902Z,68.61
2023-04-11T20:09:11.937Z,68.47
2023-04-11T20:11:39.445Z,68.56
2023-04-11T20:14:07.576Z,69.21
2023-04-11T20:16:34.099Z,69.39
2023-04-11T20:19:01.790Z,69.99
2023-04-11T20:21:28.490Z,70.15
2023-04-11T20:23:55.085Z,70.02
2023-04-11T20:26:21.770Z,69.96
2023-04-11T20:28:49.677Z,69.72
2023-04-11T20:31:16.310Z,69.85
2023-04-11T20:33:44.203Z,69.43
2023-04-11T20:36:11.293Z,69.09
2023-04-11T20:38:37.777Z,69.31
2023-04-11T20:41:05.700Z,69.68
2023-04-11T20:43:32.249Z,69.84
2023-04-11T20:45:58.673Z,69.67
2023-04-11T20:48:26.018Z,70.05
2023-04-11T20:50:55.807Z,70.24
2023-04-11T20:53:22.314Z,70.40
2023-04-11T20:55:48.800Z,70.93
2023-04-11T20:58:18.489Z,70.37
2023-04-11T21:00:44.983Z,70.26
2023-04-11T21:03:11.778Z,70.59
2023-04-11T21:05:44.293Z,70.65
2023-04-11T21:08:13.772Z,70.83
2023-04-11T21:10:40.420Z,71.14
2023-04-11T21:13:07.483Z,71.15
2023-04-11T21:15:34.633Z,71.18
2023-04-11T21:18:01.261Z,71.29
2023-04-11T21:20:27.763Z,71.48
2023-04-11T21:22:54.305Z,71.51
2023-04-11T21:25:21.862Z,71.52
2023-04-11T21:27:48.330Z,71.04
2023-04-11T21:30:14.939Z,71.37
2023-04-11T21:32:41.952Z,71.88
2023-04-11T21:35:10.422Z,71.90
2023-04-11T21:37:37.138Z,72.00
2023-04-11T21:40:03.973Z,72.43
2023-04-11T21:42:30.730Z,72.62
2023-04-11T21:44:57.142Z,72.72
2023-04-11T21:47:23.676Z,72.82
2023-04-11T21:49:50.383Z,72.66
2023-04-11T21:52:17.061Z,73.08
2023-04-11T21:54:43.765Z,73.08
2023-04-11T21:57:10.938Z,72.93
2023-04-11T21:59:38.625Z,73.23
2023-04-11T22:02:05.419Z,73.40
2023-04-11T22:07:01.166Z,74.12
2023-04-11T22:09:27.560Z,74.44
2023-04-11T22:11:53.963Z,74.50
2023-04-11T22:14:20.430Z,74.84
2023-04-11T22:16:49.312Z,75.33
2023-04-11T22:19:19.191Z,75.74
2023-04-11T22:21:55.489Z,76.50
2023-04-11T22:24:30.932Z,77.04
2023-04-11T22:26:58.411Z,76.34
2023-04-11T22:29:30.392Z,77.00
2023-04-11T22:31:58.220Z,77.04
2023-04-11T22:34:25.727Z,77.71
2023-04-11T22:36:52.942Z,77.81
2023-04-11T22:39:20.121Z,78.78
2023-04-11T22:41:50.407Z,79.01
2023-04-11T22:44:16.972Z,79.81
2023-04-11T22:46:58.987Z,79.85
2023-04-11T22:49:25.596Z,80.60
2023-04-11T22:51:53.307Z,80.61
2023-04-11T22:54:19.686Z,80.97
2023-04-11T22:56:48.506Z,81.65
2023-04-11T22:59:14.929Z,82.41
2023-04-11T23:01:41.439Z,82.93
2023-04-11T23:04:08.360Z,82.68
2023-04-11T23:06:34.824Z,82.73
2023-04-11T23:09:01.392Z,83.11
2023-04-11T23:11:27.789Z,83.43
2023-04-11T23:13:54.474Z,83.64
2023-04-11T23:16:22.008Z,84.29
2023-04-11T23:18:48.455Z,84.69
2023-04-11T23:21:14.950Z,84.00
2023-04-11T23:23:41.353Z,84.49
2023-04-11T23:26:09.247Z,84.71
2023-04-11T23:28:35.647Z,85.14
2023-04-11T23:31:02.129Z,85.68
2023-04-11T23:33:28.561Z,85.27
2023-04-11T23:35:54.998Z,85.45
2023-04-11T23:38:23.395Z,85.55
2023-04-11T23:40:50.222Z,85.84
2023-04-11T23:43:16.864Z,86.79
2023-04-11T23:45:43.688Z,86.73
2023-04-11T23:48:10.126Z,86.74
2023-04-11T23:50:36.766Z,87.74
2023-04-11T23:53:03.174Z,88.31
2023-04-11T23:55:29.846Z,88.80
2023-04-11T23:57:56.552Z,89.32
